Time;durP1;ratioP1;P1;durP2;ratioP2;P2;SDS_P1;SDS_P2;PMS_P1;PMS_P2;Temp;Humidity;BMP_temperature;BMP_pressure;BME280_temperature;BME280_humidity;BME280_pressure;Samples;Min_cycle;Max_cycle;Signal;HPM_P1;HPM_P2
2022/11/16 00:00:17;;;;;;;11.15;7.38;;;9.90;90.60;;;;;;5070076;28;20034;-74
2022/11/16 00:02:43;;;;;;;12.52;7.10;;;9.90;90.80;;;;;;5070800;28;20032;-75
2022/11/16 00:05:09;;;;;;;14.40;7.43;;;9.80;90.90;;;;;;5067200;28;20068;-74
2022/11/16 00:07:34;;;;;;;15.57;7.53;;;9.80;90.90;;;;;;5073620;28;20381;-74
2022/11/16 00:10:00;;;;;;;12.10;7.00;;;9.80;90.90;;;;;;5073078;28;20044;-74
2022/11/16 00:12:26;;;;;;;14.68;7.78;;;9.80;91.10;;;;;;5078678;28;20032;-75
2022/11/16 00:14:51;;;;;;;14.73;7.65;;;9.90;90.70;;;;;;5070445;28;20106;-74
2022/11/16 00:17:17;;;;;;;13.10;7.50;;;9.80;90.70;;;;;;5069920;28;20029;-73
2022/11/16 00:19:42;;;;;;;15.65;8.57;;;9.80;90.90;;;;;;5071518;28;20058;-74
2022/11/16 00:22:07;;;;;;;14.10;8.30;;;9.70;91.20;;;;;;5068329;28;20029;-73
2022/11/16 00:24:33;;;;;;;13.82;8.27;;;9.80;91.10;;;;;;5070942;28;20082;-74
2022/11/16 00:26:58;;;;;;;15.68;8.43;;;9.70;91.10;;;;;;5071190;28;20380;-74
2022/11/16 00:29:25;;;;;;;14.60;8.80;;;9.80;90.90;;;;;;5073305;28;20052;-75
2022/11/16 00:31:52;;;;;;;13.35;8.60;;;9.80;91.00;;;;;;5074733;28;20033;-74
2022/11/16 00:34:18;;;;;;;14.38;8.95;;;9.80;90.80;;;;;;5079988;28;20032;-73
2022/11/16 00:36:44;;;;;;;13.10;8.25;;;9.80;90.80;;;;;;5075785;28;20031;-74
2022/11/16 00:39:11;;;;;;;14.63;8.93;;;9.80;90.80;;;;;;5084492;28;20071;-73
2022/11/16 00:41:37;;;;;;;15.85;8.95;;;9.80;90.90;;;;;;5069100;28;20115;-74
2022/11/16 00:44:02;;;;;;;15.73;9.13;;;9.80;90.90;;;;;;5064189;28;20064;-74
2022/11/16 00:46:28;;;;;;;15.20;8.55;;;9.80;90.70;;;;;;5070278;28;20472;-77
2022/11/16 00:48:53;;;;;;;14.90;8.90;;;9.80;90.80;;;;;;5074986;28;20041;-74
2022/11/16 00:51:19;;;;;;;15.13;9.63;;;9.70;91.00;;;;;;5065715;28;20529;-74
2022/11/16 00:53:44;;;;;;;15.77;9.60;;;9.80;90.90;;;;;;5072192;28;20039;-76
2022/11/16 00:56:10;;;;;;;15.52;9.25;;;9.80;90.70;;;;;;5074361;28;20036;-73
2022/11/16 00:58:35;;;;;;;15.02;9.45;;;9.80;90.70;;;;;;5066356;28;20032;-74
2022/11/16 01:01:05;;;;;;;14.80;9.23;;;9.80;90.70;;;;;;5073056;28;20044;-74
2022/11/16 01:03:31;;;;;;;15.57;9.68;;;9.70;90.80;;;;;;5075095;28;20497;-73
2022/11/16 01:06:05;;;;;;;14.95;9.35;;;9.70;90.80;;;;;;5068788;28;20027;-76
2022/11/16 01:08:31;;;;;;;17.02;9.43;;;9.70;91.00;;;;;;5072502;28;20039;-74
2022/11/16 01:12:07;;;;;;;17.70;10.52;;;9.60;91.10;;;;;;5081760;28;20051;-73
2022/11/16 01:13:43;;;;;;;15.68;10.32;;;9.60;91.10;;;;;;5074375;28;20066;-74
2022/11/16 01:16:11;;;;;;;17.45;10.27;;;9.60;91.10;;;;;;5073328;28;20117;-75
2022/11/16 01:18:37;;;;;;;16.55;9.95;;;9.50;91.30;;;;;;5087032;28;20456;-74
2022/11/16 01:21:05;;;;;;;17.85;10.93;;;9.50;91.40;;;;;;5073156;28;20028;-75
2022/11/16 01:23:30;;;;;;;17.35;10.75;;;9.50;91.30;;;;;;5072678;28;20397;-74
2022/11/16 01:25:57;;;;;;;16.85;11.18;;;9.50;91.40;;;;;;5081033;28;20020;-73
2022/11/16 01:28:22;;;;;;;19.38;11.38;;;9.40;91.40;;;;;;5078471;28;20095;-74
2022/11/16 01:30:48;;;;;;;17.58;11.23;;;9.40;91.50;;;;;;5077532;28;20529;-74
2022/11/16 01:33:13;;;;;;;19.45;12.30;;;9.40;91.40;;;;;;5079940;28;20040;-73
2022/11/16 01:35:42;;;;;;;20.38;12.13;;;9.30;91.40;;;;;;5076462;28;20461;-76
2022/11/16 01:38:08;;;;;;;18.52;11.63;;;9.30;91.40;;;;;;5073232;28;20031;-73
2022/11/16 01:40:33;;;;;;;18.70;12.35;;;9.30;91.40;;;;;;5070458;28;20044;-73
2022/11/16 01:42:58;;;;;;;18.98;12.27;;;9.30;91.50;;;;;;5070870;28;20036;-73
2022/11/16 01:45:37;;;;;;;19.88;12.70;;;9.20;91.60;;;;;;5067020;28;20035;-75
2022/11/16 01:48:03;;;;;;;22.05;13.10;;;9.20;91.60;;;;;;5078326;28;20036;-73
2022/11/16 01:50:29;;;;;;;22.30;11.95;;;9.20;91.70;;;;;;5073187;28;20033;-75
2022/11/16 01:52:58;;;;;;;19.08;12.52;;;9.10;91.70;;;;;;5067889;28;20047;-78
2022/11/16 01:55:26;;;;;;;21.65;13.13;;;9.10;91.80;;;;;;5067573;28;20037;-74
2022/11/16 01:57:53;;;;;;;17.42;11.40;;;9.10;91.90;;;;;;5068002;28;20036;-74
2022/11/16 02:00:18;;;;;;;19.83;12.23;;;9.00;91.90;;;;;;5070171;28;20372;-73
2022/11/16 02:02:44;;;;;;;23.67;12.90;;;9.00;92.00;;;;;;5070914;28;20028;-73
2022/11/16 02:05:12;;;;;;;17.33;12.15;;;9.00;92.10;;;;;;5073661;28;20094;-74
2022/11/16 02:11:22;;;;;;;20.30;13.00;;;8.90;92.20;;;;;;5069663;28;20027;-78
2022/11/16 02:14:21;;;;;;;21.20;12.10;;;8.80;92.20;;;;;;5073897;28;20037;-74
2022/11/16 02:17:18;;;;;;;24.90;14.50;;;8.80;92.10;;;;;;5073412;28;20029;-74
2022/11/16 02:19:59;;;;;;;23.00;14.77;;;8.80;92.10;;;;;;5062323;28;20040;-75
2022/11/16 02:22:24;;;;;;;;;;;8.80;92.20;;;;;;5072045;28;20051;-74
2022/11/16 02:25:33;;;;;;;21.05;13.27;;;8.70;92.20;;;;;;5075301;28;19904;-74
2022/11/16 02:28:08;;;;;;;22.10;12.75;;;8.70;92.30;;;;;;5069763;28;20487;-74
2022/11/16 02:30:35;;;;;;;25.10;14.73;;;8.70;92.40;;;;;;5071783;28;20358;-74
2022/11/16 02:33:08;;;;;;;26.25;15.27;;;8.60;92.50;;;;;;5070296;28;20121;-75
2022/11/16 02:35:45;;;;;;;24.50;14.60;;;8.60;92.50;;;;;;5070431;28;20043;-75
2022/11/16 02:38:22;;;;;;;20.35;13.88;;;8.60;92.50;;;;;;5060229;28;20397;-74
2022/11/16 02:40:52;;;;;;;24.83;15.50;;;8.50;92.70;;;;;;5070484;28;20380;-73
2022/11/16 02:43:25;;;;;;;25.87;15.87;;;8.50;92.70;;;;;;5066722;28;20040;-74
2022/11/16 02:45:54;;;;;;;27.33;15.30;;;8.40;92.90;;;;;;5071301;28;20063;-74
2022/11/16 02:48:25;;;;;;;23.85;16.15;;;8.40;92.90;;;;;;5072818;28;20035;-73
2022/11/16 02:50:51;;;;;;;;;;;8.30;93.00;;;;;;5072273;28;20036;-73
2022/11/16 02:53:20;;;;;;;25.42;15.20;;;8.30;93.00;;;;;;5069296;28;19998;-74
2022/11/16 02:55:45;;;;;;;24.02;15.05;;;8.30;93.00;;;;;;5072583;28;20025;-75
2022/11/16 02:58:16;;;;;;;30.02;16.55;;;8.30;93.10;;;;;;5074397;28;20036;-74
2022/11/16 03:00:42;;;;;;;;;;;8.30;93.00;;;;;;5076742;28;20040;-74
2022/11/16 03:03:17;;;;;;;25.08;15.93;;;8.30;93.00;;;;;;5067765;28;20070;-73
2022/11/16 03:05:56;;;;;;;25.00;15.35;;;8.30;93.00;;;;;;5065799;28;20028;-75
2022/11/16 03:08:36;;;;;;;28.67;16.60;;;8.30;93.00;;;;;;5065254;28;20477;-74
2022/11/16 03:13:51;;;;;;;25.75;15.57;;;8.20;92.90;;;;;;5065549;28;20059;-73
2022/11/16 03:16:31;;;;;;;27.08;16.98;;;8.20;93.00;;;;;;5075762;28;20350;-73
2022/11/16 03:18:59;;;;;;;28.17;16.92;;;8.20;92.90;;;;;;5072171;28;20029;-73
2022/11/16 03:21:47;;;;;;;26.27;16.33;;;8.20;92.90;;;;;;5070823;28;20036;-73
2022/11/16 03:24:13;;;;;;;28.15;16.38;;;8.10;92.90;;;;;;5064206;28;20080;-75
2022/11/16 03:27:05;;;;;;;26.88;17.00;;;8.10;93.00;;;;;;5071480;28;20032;-75
2022/11/16 03:29:47;;;;;;;27.55;16.27;;;8.00;93.00;;;;;;5070602;28;20059;-75
2022/11/16 03:32:43;;;;;;;28.58;16.90;;;8.00;93.10;;;;;;5078421;28;20059;-75
2022/11/16 03:35:26;;;;;;;29.10;17.85;;;8.00;93.20;;;;;;5083568;28;20021;-77
2022/11/16 03:37:55;;;;;;;30.90;17.98;;;7.90;93.20;;;;;;5066741;28;20075;-75
2022/11/16 03:40:22;;;;;;;25.83;15.95;;;7.90;93.20;;;;;;5072296;28;20043;-75
2022/11/16 03:42:49;;;;;;;27.88;16.67;;;7.90;93.30;;;;;;5070411;28;20033;-75
2022/11/16 03:45:16;;;;;;;32.70;17.60;;;7.90;93.40;;;;;;5068869;28;20041;-74
2022/11/16 03:47:42;;;;;;;31.55;17.55;;;7.90;93.40;;;;;;5070534;28;20079;-78
2022/11/16 03:50:08;;;;;;;29.73;17.10;;;7.80;93.30;;;;;;5069200;28;20408;-74
2022/11/16 03:52:34;;;;;;;32.30;17.70;;;7.80;93.40;;;;;;5070477;28;20031;-74
2022/11/16 03:54:59;;;;;;;29.40;17.08;;;7.80;93.50;;;;;;5069389;28;20033;-74
2022/11/16 03:57:25;;;;;;;29.20;17.45;;;7.80;93.70;;;;;;5069864;28;20086;-74
2022/11/16 03:59:51;;;;;;;29.35;17.38;;;7.80;93.70;;;;;;5068714;28;20036;-74
2022/11/16 04:02:16;;;;;;;31.00;17.25;;;7.70;94.00;;;;;;5064131;28;20029;-75
2022/11/16 04:24:17;;;;;;;33.53;16.75;;;7.60;94.70;;;;;;5054040;28;20032;-74
2022/11/16 04:29:30;;;;;;;29.58;17.45;;;7.50;94.70;;;;;;5067723;28;20039;-73
2022/11/16 04:37:51;;;;;;;31.50;17.55;;;7.50;94.90;;;;;;5071069;28;20032;-73
2022/11/16 04:40:21;;;;;;;31.67;17.40;;;7.50;94.90;;;;;;5070036;28;20119;-75
2022/11/16 04:42:54;;;;;;;29.47;16.50;;;7.50;95.00;;;;;;5072158;28;20044;-75
2022/11/16 04:48:06;;;;;;;35.45;18.38;;;7.50;95.30;;;;;;5075045;28;20047;-79
2022/11/16 04:50:32;;;;;;;31.15;17.40;;;7.50;95.40;;;;;;5074046;28;20524;-75
2022/11/16 04:52:58;;;;;;;31.02;17.27;;;7.40;95.50;;;;;;5075080;28;20029;-75
2022/11/16 04:55:23;;;;;;;31.77;16.65;;;7.40;95.50;;;;;;5070194;28;20043;-75
2022/11/16 04:57:49;;;;;;;33.33;17.60;;;7.40;95.50;;;;;;5068696;28;20069;-74
2022/11/16 05:00:15;;;;;;;33.00;17.42;;;7.40;95.40;;;;;;5070038;28;20097;-74
2022/11/16 05:02:41;;;;;;;29.08;15.45;;;7.40;95.50;;;;;;5083733;28;20025;-76
2022/11/16 05:05:07;;;;;;;33.92;17.58;;;7.40;95.60;;;;;;5071412;28;20033;-74
2022/11/16 05:07:33;;;;;;;36.33;18.38;;;7.40;95.70;;;;;;5071054;28;20078;-74
2022/11/16 05:09:58;;;;;;;33.63;18.45;;;7.40;95.90;;;;;;5064775;28;20032;-74
2022/11/16 05:12:26;;;;;;;33.50;18.20;;;7.30;96.00;;;;;;5068689;28;20036;-76
2022/11/16 05:14:53;;;;;;;33.55;18.15;;;7.30;96.10;;;;;;5076823;28;20079;-75
2022/11/16 05:17:19;;;;;;;33.58;17.65;;;7.30;96.20;;;;;;5095093;28;20083;-76
2022/11/16 05:22:29;;;;;;;34.88;19.35;;;7.30;96.30;;;;;;5084349;28;20107;-75
2022/11/16 05:24:54;;;;;;;36.38;18.95;;;7.20;96.40;;;;;;5070234;28;20111;-75
2022/11/16 05:27:21;;;;;;;34.10;18.00;;;7.20;96.50;;;;;;5087161;28;20042;-75
2022/11/16 05:29:50;;;;;;;40.72;19.20;;;7.20;96.60;;;;;;5061625;28;20063;-71
2022/11/16 05:32:17;;;;;;;34.92;19.55;;;7.20;96.70;;;;;;5076014;28;20055;-70
2022/11/16 05:34:44;;;;;;;36.25;19.73;;;7.10;96.80;;;;;;5081678;28;20025;-71
2022/11/16 05:37:10;;;;;;;32.63;18.13;;;7.10;96.80;;;;;;5078906;28;20047;-69
2022/11/16 05:39:35;;;;;;;34.40;17.35;;;7.10;96.90;;;;;;5080109;28;20032;-71
2022/11/16 05:42:01;;;;;;;35.22;19.10;;;7.10;97.00;;;;;;5069700;28;20033;-71
2022/11/16 05:44:27;;;;;;;32.92;18.15;;;7.10;97.00;;;;;;5070238;28;20066;-70
2022/11/16 05:46:54;;;;;;;34.50;17.73;;;7.00;97.00;;;;;;5066568;28;20071;-71
2022/11/16 05:49:19;;;;;;;36.25;19.58;;;7.10;97.10;;;;;;5080450;28;20127;-71
2022/11/16 05:51:45;;;;;;;34.25;19.15;;;7.10;97.10;;;;;;5065673;28;20123;-70
2022/11/16 05:54:19;;;;;;;34.42;18.50;;;7.10;97.10;;;;;;5069552;28;20068;-70
2022/11/16 05:56:45;;;;;;;38.10;19.30;;;7.00;97.20;;;;;;5068264;28;20035;-71
2022/11/16 05:59:12;;;;;;;32.88;18.50;;;7.00;97.20;;;;;;5071124;28;20024;-69
2022/11/16 06:01:38;;;;;;;43.22;18.65;;;7.00;97.30;;;;;;5068840;28;20111;-70
2022/11/16 06:04:04;;;;;;;36.97;16.80;;;7.00;97.30;;;;;;5056102;28;20059;-70
2022/11/16 06:06:29;;;;;;;35.53;17.63;;;7.00;97.30;;;;;;5063434;28;20067;-70
2022/11/16 06:08:55;;;;;;;38.78;18.40;;;7.00;97.30;;;;;;5060293;28;20064;-72
2022/11/16 06:11:21;;;;;;;36.92;18.60;;;7.00;97.40;;;;;;5064916;28;20055;-72
2022/11/16 06:13:47;;;;;;;34.78;19.25;;;6.90;97.30;;;;;;5068611;28;20082;-71
2022/11/16 06:16:12;;;;;;;36.47;18.45;;;6.90;97.20;;;;;;5069588;28;20028;-74
2022/11/16 06:18:39;;;;;;;36.67;19.38;;;6.90;97.20;;;;;;5065699;28;20037;-70
2022/11/16 06:21:06;;;;;;;34.90;19.27;;;6.90;97.30;;;;;;5066797;28;20438;-70
2022/11/16 06:23:32;;;;;;;38.05;19.67;;;6.90;97.30;;;;;;5064669;28;20040;-70
2022/11/16 06:25:57;;;;;;;34.88;18.70;;;6.90;97.30;;;;;;5072245;28;20108;-70
2022/11/16 06:28:23;;;;;;;36.40;19.65;;;6.90;97.30;;;;;;5072055;28;20465;-69
2022/11/16 06:30:49;;;;;;;38.38;18.35;;;6.80;97.10;;;;;;5066986;28;20481;-72
2022/11/16 06:33:16;;;;;;;36.70;18.80;;;6.80;97.30;;;;;;5070282;28;20051;-70
2022/11/16 06:35:41;;;;;;;31.70;18.00;;;6.80;97.30;;;;;;5072054;28;20465;-70
2022/11/16 06:38:07;;;;;;;39.47;18.80;;;6.80;97.30;;;;;;5072753;28;20036;-71
2022/11/16 06:40:33;;;;;;;37.17;19.52;;;6.80;97.30;;;;;;5067825;28;20056;-70
2022/11/16 06:42:58;;;;;;;40.67;18.58;;;6.80;97.30;;;;;;5075680;28;20047;-70
2022/11/16 06:45:25;;;;;;;37.08;18.15;;;6.80;97.20;;;;;;5066065;28;20040;-70
2022/11/16 06:47:50;;;;;;;34.53;19.50;;;6.70;97.30;;;;;;5076750;28;20028;-70
2022/11/16 06:50:19;;;;;;;39.80;19.48;;;6.80;97.20;;;;;;5064548;28;20037;-70
2022/11/16 06:52:45;;;;;;;36.28;18.58;;;6.80;97.20;;;;;;5065467;28;20028;-71
2022/11/16 06:55:11;;;;;;;33.10;17.60;;;6.80;97.30;;;;;;5070682;28;20524;-70
2022/11/16 06:57:37;;;;;;;40.90;18.65;;;6.80;97.30;;;;;;5071846;28;20159;-70
2022/11/16 07:00:04;;;;;;;36.25;19.02;;;6.80;97.20;;;;;;5068259;28;20033;-72
2022/11/16 07:02:29;;;;;;;35.08;18.10;;;6.70;97.20;;;;;;5070936;28;20043;-71
2022/11/16 07:04:55;;;;;;;36.15;18.67;;;6.80;97.20;;;;;;5071643;28;20045;-72
2022/11/16 07:07:20;;;;;;;37.38;18.40;;;6.80;97.10;;;;;;5071931;28;20064;-70
2022/11/16 07:09:46;;;;;;;34.35;17.55;;;6.80;97.10;;;;;;5070624;28;20384;-71
2022/11/16 07:12:11;;;;;;;37.92;18.77;;;6.80;97.00;;;;;;5072433;28;20037;-71
2022/11/16 07:14:37;;;;;;;39.28;20.38;;;6.80;97.00;;;;;;5073518;28;20712;-70
2022/11/16 07:17:02;;;;;;;37.60;18.73;;;6.80;97.00;;;;;;5074060;28;20449;-70
2022/11/16 07:19:28;;;;;;;34.42;18.50;;;6.80;97.00;;;;;;5079169;28;20028;-71
2022/11/16 07:21:53;;;;;;;36.63;19.13;;;6.70;96.90;;;;;;5067636;28;20032;-70
2022/11/16 07:24:19;;;;;;;34.78;18.23;;;6.80;97.00;;;;;;5070395;28;20063;-71
2022/11/16 07:26:44;;;;;;;38.72;18.27;;;6.80;97.00;;;;;;5058904;28;20511;-71
2022/11/16 07:29:10;;;;;;;38.08;18.92;;;6.80;97.00;;;;;;5062365;28;20044;-71
2022/11/16 07:31:35;;;;;;;36.00;19.13;;;6.80;96.90;;;;;;5065588;28;20035;-69
2022/11/16 07:34:00;;;;;;;38.78;18.33;;;6.80;96.90;;;;;;5062319;28;20036;-69
2022/11/16 07:36:26;;;;;;;37.00;18.67;;;6.80;96.90;;;;;;5064848;28;20039;-69
2022/11/16 07:38:51;;;;;;;36.55;18.20;;;6.80;96.90;;;;;;5062680;28;20530;-70
2022/11/16 07:41:19;;;;;;;36.03;20.20;;;6.80;96.90;;;;;;5067555;28;20042;-71
2022/11/16 07:43:45;;;;;;;35.42;18.20;;;6.80;96.80;;;;;;5062185;28;20021;-76
2022/11/16 07:46:18;;;;;;;37.90;19.55;;;6.80;96.70;;;;;;5064874;28;20088;-70
2022/11/16 07:48:43;;;;;;;35.55;19.05;;;6.80;96.70;;;;;;5062491;28;20028;-72
2022/11/16 07:51:12;;;;;;;40.42;19.17;;;6.80;96.70;;;;;;5063859;28;20297;-71
2022/11/16 07:53:38;;;;;;;33.95;18.17;;;6.90;96.70;;;;;;5061731;28;20127;-72
2022/11/16 07:56:05;;;;;;;35.78;18.50;;;6.80;96.60;;;;;;5061976;28;20063;-71
2022/11/16 07:58:32;;;;;;;37.22;18.48;;;6.90;96.60;;;;;;5067231;28;20032;-71
2022/11/16 08:01:05;;;;;;;32.28;17.52;;;6.90;96.50;;;;;;5064802;28;20034;-70
2022/11/16 08:03:31;;;;;;;34.72;18.55;;;6.90;96.50;;;;;;5068883;28;20104;-70
2022/11/16 08:06:02;;;;;;;33.10;17.88;;;6.90;96.30;;;;;;5069932;28;20181;-71
2022/11/16 08:08:28;;;;;;;;;;;6.90;96.20;;;;;;5070619;28;20040;-75
2022/11/16 08:11:04;;;;;;;33.03;17.33;;;6.90;96.20;;;;;;5059168;28;19917;-71
2022/11/16 08:13:33;;;;;;;33.80;18.40;;;6.90;96.00;;;;;;5054445;28;20036;-70
2022/11/16 08:16:13;;;;;;;34.35;18.25;;;7.00;96.10;;;;;;5071089;28;20385;-70
2022/11/16 08:18:39;;;;;;;39.85;19.63;;;7.00;96.00;;;;;;5058179;28;20464;-71
2022/11/16 08:21:07;;;;;;;33.85;18.02;;;7.00;95.80;;;;;;5067282;28;20028;-72
2022/11/16 08:23:33;;;;;;;32.25;18.50;;;7.00;95.70;;;;;;5067826;28;20028;-70
2022/11/16 08:26:16;;;;;;;32.47;18.70;;;7.00;95.60;;;;;;5071633;28;20134;-73
2022/11/16 08:28:44;;;;;;;32.67;18.58;;;7.10;95.60;;;;;;5070165;28;20039;-70
2022/11/16 08:31:16;;;;;;;27.73;14.98;;;7.10;95.50;;;;;;5063391;28;20120;-71
2022/11/16 08:33:41;;;;;;;38.67;19.65;;;7.10;95.30;;;;;;5069956;28;20060;-70
2022/11/16 08:36:11;;;;;;;36.35;19.58;;;7.10;95.30;;;;;;5066704;28;20056;-71
2022/11/16 08:38:37;;;;;;;33.25;18.60;;;7.10;95.20;;;;;;5070421;28;20043;-70
2022/11/16 08:41:02;;;;;;;34.80;19.40;;;7.10;95.30;;;;;;5070607;28;20118;-70
2022/11/16 08:43:29;;;;;;;30.80;17.10;;;7.10;95.30;;;;;;5068511;28;20117;-71
2022/11/16 08:45:56;;;;;;;35.92;19.23;;;7.00;95.00;;;;;;5069060;28;20517;-70
2022/11/16 08:48:21;;;;;;;34.90;19.35;;;7.10;95.30;;;;;;5069787;28;20081;-72
2022/11/16 08:50:47;;;;;;;35.97;20.50;;;7.10;95.30;;;;;;5075402;28;20037;-70
2022/11/16 08:53:14;;;;;;;34.28;17.80;;;7.10;95.30;;;;;;5073254;28;20071;-71
2022/11/16 08:55:41;;;;;;;34.50;19.63;;;7.10;95.30;;;;;;5076944;28;20037;-70
2022/11/16 08:58:06;;;;;;;33.03;19.95;;;7.00;95.40;;;;;;5074143;28;20035;-70
2022/11/16 09:00:31;;;;;;;36.75;19.60;;;7.00;95.40;;;;;;5074565;28;20480;-73
2022/11/16 09:02:57;;;;;;;35.45;19.05;;;7.00;95.40;;;;;;5070072;28;20028;-70
2022/11/16 09:05:22;;;;;;;33.13;18.55;;;7.00;95.50;;;;;;5072552;28;20036;-71
2022/11/16 09:07:48;;;;;;;35.28;19.35;;;7.00;95.50;;;;;;5081595;28;20384;-74
2022/11/16 09:10:14;;;;;;;38.95;20.13;;;7.00;95.40;;;;;;5072596;28;20028;-71
2022/11/16 09:12:40;;;;;;;39.80;19.95;;;7.00;95.50;;;;;;5074686;28;20040;-73
2022/11/16 09:15:06;;;;;;;37.40;19.25;;;7.00;95.50;;;;;;5071509;28;20033;-71
2022/11/16 09:17:32;;;;;;;37.47;20.80;;;6.90;95.40;;;;;;5071836;28;20037;-71
2022/11/16 09:19:57;;;;;;;36.60;19.17;;;6.90;95.40;;;;;;5069359;28;20350;-71
2022/11/16 09:22:23;;;;;;;43.38;20.65;;;6.90;95.50;;;;;;5075417;28;20032;-71
2022/11/16 09:24:48;;;;;;;42.58;20.13;;;7.00;95.70;;;;;;5070730;28;20059;-72
2022/11/16 09:27:15;;;;;;;37.72;20.08;;;6.90;95.60;;;;;;5073688;28;20032;-73
2022/11/16 09:29:40;;;;;;;37.30;21.27;;;6.90;95.60;;;;;;5076829;28;20032;-71
2022/11/16 09:32:06;;;;;;;37.40;20.13;;;6.90;95.80;;;;;;5072128;28;20598;-71
2022/11/16 09:34:35;;;;;;;36.88;20.33;;;6.90;95.80;;;;;;5072985;28;20050;-72
2022/11/16 09:37:01;;;;;;;41.72;21.70;;;6.80;95.90;;;;;;5074393;28;20040;-70
2022/11/16 09:39:26;;;;;;;34.83;20.67;;;6.90;96.10;;;;;;5091760;28;20024;-71
2022/11/16 09:42:22;;;;;;;38.78;21.05;;;6.80;96.20;;;;;;5085456;28;20107;-71
2022/11/16 09:44:58;;;;;;;39.63;20.55;;;6.90;96.30;;;;;;5080989;28;20484;-71
2022/11/16 09:47:45;;;;;;;39.45;21.13;;;6.80;96.50;;;;;;5091605;28;20048;-71
2022/11/16 09:50:25;;;;;;;42.80;21.50;;;6.80;96.50;;;;;;5087945;28;20057;-72
2022/11/16 09:52:56;;;;;;;42.13;20.85;;;6.70;96.70;;;;;;5068843;28;20036;-71
2022/11/16 09:55:24;;;;;;;;;;;6.70;96.70;;;;;;5090634;28;20423;-72
2022/11/16 09:57:54;;;;;;;39.40;18.90;;;6.70;96.80;;;;;;5080628;28;19909;-72
2022/11/16 10:00:24;;;;;;;36.50;20.88;;;6.70;96.90;;;;;;5072305;28;20028;-72
2022/11/16 10:03:03;;;;;;;43.03;20.42;;;6.70;96.80;;;;;;5080288;28;20027;-70
2022/11/16 10:05:39;;;;;;;31.00;16.50;;;6.70;97.00;;;;;;5068772;28;20031;-68
2022/11/16 10:08:32;;;;;;;37.75;20.33;;;6.60;96.90;;;;;;5077531;28;20064;-68
2022/11/16 10:11:35;;;;;;;43.53;21.65;;;6.70;97.20;;;;;;5079603;28;20052;-68
2022/11/16 10:14:09;;;;;;;43.25;23.20;;;6.60;97.20;;;;;;5064650;28;20396;-68
2022/11/16 10:16:48;;;;;;;41.53;20.55;;;6.70;97.30;;;;;;5071871;28;20120;-70
2022/11/16 10:19:30;;;;;;;40.40;21.25;;;6.70;97.40;;;;;;5071088;28;20024;-68
2022/11/16 10:22:10;;;;;;;50.78;21.40;;;6.70;97.40;;;;;;5063880;28;20116;-68
2022/11/16 10:24:57;;;;;;;43.40;21.08;;;6.70;97.40;;;;;;5069487;28;20497;-69
2022/11/16 10:27:50;;;;;;;39.00;19.40;;;6.70;97.60;;;;;;5062266;28;20043;-68
2022/11/16 10:30:18;;;;;;;44.35;20.25;;;6.70;97.60;;;;;;5070866;28;20086;-68
2022/11/16 10:33:00;;;;;;;34.70;18.63;;;6.60;97.60;;;;;;5071724;28;20028;-67
2022/11/16 10:35:52;;;;;;;40.65;21.42;;;6.50;97.50;;;;;;5072361;28;20093;-68
2022/11/16 10:38:22;;;;;;;34.22;19.50;;;6.60;97.70;;;;;;5084924;28;20039;-67
2022/11/16 10:41:00;;;;;;;37.92;20.02;;;6.50;97.70;;;;;;5069189;28;20043;-67
2022/11/16 10:43:29;;;;;;;36.03;18.77;;;6.50;97.70;;;;;;5068789;28;20041;-68
2022/11/16 10:46:23;;;;;;;41.03;20.50;;;6.50;97.80;;;;;;5067081;28;20052;-71
2022/11/16 10:49:07;;;;;;;35.70;16.33;;;6.50;97.90;;;;;;5067624;28;20036;-69
2022/11/16 10:51:33;;;;;;;38.08;20.00;;;6.40;97.80;;;;;;5070179;28;20044;-69
2022/11/16 10:53:58;;;;;;;45.15;20.58;;;6.40;97.90;;;;;;5074555;28;20032;-74
2022/11/16 10:56:36;;;;;;;40.92;21.10;;;6.40;97.90;;;;;;5070142;28;20040;-71
2022/11/16 10:59:04;;;;;;;42.08;20.95;;;6.40;98.00;;;;;;5070933;28;20052;-70
2022/11/16 11:01:49;;;;;;;40.35;20.08;;;6.40;97.90;;;;;;5070354;28;20021;-68
2022/11/16 11:04:25;;;;;;;43.88;21.40;;;6.40;98.00;;;;;;5075523;28;20374;-68
2022/11/16 11:07:22;;;;;;;39.42;19.85;;;6.40;98.10;;;;;;5067381;28;20421;-68
2022/11/16 11:09:52;;;;;;;34.25;18.48;;;6.30;98.00;;;;;;5060736;28;20048;-69
2022/11/16 11:12:38;;;;;;;39.13;18.77;;;6.30;98.10;;;;;;5059668;28;20044;-68
2022/11/16 11:15:09;;;;;;;40.97;19.02;;;6.30;98.20;;;;;;5063562;28;20039;-71
2022/11/16 11:17:36;;;;;;;39.65;19.52;;;6.30;98.20;;;;;;5068391;28;20037;-71
2022/11/16 11:20:05;;;;;;;39.33;18.08;;;6.30;98.20;;;;;;5070851;28;20031;-69
2022/11/16 11:22:42;;;;;;;41.75;19.50;;;6.30;98.20;;;;;;5067240;28;20093;-68
2022/11/16 11:25:20;;;;;;;39.10;18.92;;;6.20;98.10;;;;;;5071508;28;20024;-68
2022/11/16 11:27:46;;;;;;;40.55;19.77;;;6.30;98.10;;;;;;5066160;28;20047;-70
2022/11/16 11:30:19;;;;;;;47.67;20.90;;;6.20;98.30;;;;;;5071501;28;20037;-68
2022/11/16 11:32:46;;;;;;;42.60;19.55;;;6.30;98.40;;;;;;5073958;28;20051;-68
2022/11/16 11:35:25;;;;;;;44.95;20.48;;;6.30;98.40;;;;;;5070335;28;20044;-69
2022/11/16 11:37:53;;;;;;;50.22;21.92;;;6.30;98.40;;;;;;5068295;28;20057;-68
2022/11/16 11:40:29;;;;;;;44.72;21.33;;;6.30;98.40;;;;;;5066775;28;20113;-72
2022/11/16 11:43:01;;;;;;;50.78;20.52;;;6.30;98.50;;;;;;5073219;28;20031;-68
2022/11/16 11:45:35;;;;;;;51.72;23.02;;;6.30;98.50;;;;;;5067077;28;20460;-68
2022/11/16 11:48:16;;;;;;;50.13;22.13;;;6.30;98.50;;;;;;5069915;28;20452;-68
2022/11/16 11:50:47;;;;;;;50.22;22.83;;;6.30;98.50;;;;;;5077190;28;20036;-68
2022/11/16 11:53:45;;;;;;;56.45;23.30;;;6.30;98.50;;;;;;5083240;28;20526;-68
2022/11/16 11:56:13;;;;;;;46.85;18.38;;;6.30;98.60;;;;;;5070642;28;20024;-68
2022/11/16 11:58:40;;;;;;;51.95;23.80;;;6.30;98.40;;;;;;5081210;28;20028;-70
2022/11/16 12:01:47;;;;;;;57.05;23.45;;;6.20;98.60;;;;;;5069850;28;20036;-68
2022/11/16 12:04:34;;;;;;;57.60;24.15;;;6.20;98.60;;;;;;5063736;28;20366;-68
2022/11/16 12:07:06;;;;;;;55.20;22.35;;;6.20;98.80;;;;;;5069418;28;20036;-68
2022/11/16 12:09:59;;;;;;;58.83;23.88;;;6.30;98.70;;;;;;5067536;28;20135;-68
2022/11/16 12:13:06;;;;;;;60.17;24.38;;;6.30;98.80;;;;;;5070050;28;20039;-68
2022/11/16 12:15:56;;;;;;;53.15;23.45;;;6.30;98.80;;;;;;5026503;28;20029;-69
2022/11/16 12:18:44;;;;;;;53.55;24.55;;;6.30;98.80;;;;;;5068495;28;20037;-72
2022/11/16 12:21:21;;;;;;;57.00;23.00;;;6.30;98.80;;;;;;5064642;28;20024;-70
2022/11/16 12:24:19;;;;;;;57.92;23.77;;;6.30;98.90;;;;;;5070710;28;20046;-68
2022/11/16 12:27:15;;;;;;;55.85;24.23;;;6.20;98.80;;;;;;5070123;28;20358;-68
2022/11/16 12:30:06;;;;;;;61.60;22.65;;;6.30;99.00;;;;;;5042968;28;20151;-70
2022/11/16 12:32:58;;;;;;;55.67;23.05;;;6.30;99.00;;;;;;5075254;28;20497;-70
2022/11/16 12:35:58;;;;;;;59.97;24.02;;;6.20;98.90;;;;;;5070747;28;20035;-68
2022/11/16 12:38:49;;;;;;;54.17;22.45;;;6.30;99.00;;;;;;5070675;28;20033;-72
2022/11/16 12:41:40;;;;;;;47.73;23.63;;;6.40;99.10;;;;;;5074709;28;20044;-68
2022/11/16 12:44:24;;;;;;;55.90;24.52;;;6.30;99.00;;;;;;5070124;28;20283;-69
2022/11/16 12:47:04;;;;;;;61.25;23.83;;;6.30;99.10;;;;;;5070625;28;20079;-67
2022/11/16 12:49:55;;;;;;;60.00;24.40;;;6.40;99.00;;;;;;5066699;28;20036;-74
2022/11/16 12:52:29;;;;;;;57.42;23.60;;;6.40;99.10;;;;;;5064808;28;20052;-68
2022/11/16 12:55:22;;;;;;;60.17;24.75;;;6.40;99.10;;;;;;5074972;28;20024;-68
2022/11/16 12:58:15;;;;;;;59.20;23.90;;;6.40;99.10;;;;;;5045024;28;20044;-67
2022/11/16 13:01:01;;;;;;;54.30;22.98;;;6.40;99.10;;;;;;5061404;28;20032;-71
2022/11/16 13:03:48;;;;;;;49.92;22.00;;;6.40;99.10;;;;;;5059655;28;20033;-71
2022/11/16 13:06:47;;;;;;;54.00;22.80;;;6.40;99.00;;;;;;5064298;28;20031;-69
2022/11/16 13:09:21;;;;;;;52.97;23.10;;;6.40;99.10;;;;;;5062950;28;20866;-68
2022/11/16 13:11:51;;;;;;;49.42;21.35;;;6.50;99.10;;;;;;5063019;28;20079;-70
2022/11/16 13:14:28;;;;;;;56.70;22.87;;;6.50;99.10;;;;;;5059565;28;20397;-69
2022/11/16 13:16:55;;;;;;;53.08;19.98;;;6.50;99.10;;;;;;5050890;28;20091;-69
2022/11/16 13:19:22;;;;;;;55.88;23.60;;;6.40;99.10;;;;;;5062611;28;20035;-68
2022/11/16 13:21:56;;;;;;;57.85;22.60;;;6.50;99.10;;;;;;5060216;28;20375;-68
2022/11/16 13:24:40;;;;;;;55.78;21.33;;;6.50;99.10;;;;;;5055362;28;20041;-70
2022/11/16 13:27:28;;;;;;;56.10;22.80;;;6.50;99.10;;;;;;5062054;28;20025;-70
2022/11/16 13:30:04;;;;;;;48.20;20.67;;;6.50;99.10;;;;;;5063100;28;20024;-69
2022/11/16 13:32:39;;;;;;;49.72;22.17;;;6.50;99.20;;;;;;5065442;28;20029;-68
2022/11/16 13:35:10;;;;;;;58.35;23.20;;;6.50;99.10;;;;;;5068349;28;20129;-68
2022/11/16 13:37:39;;;;;;;40.53;17.02;;;6.50;99.20;;;;;;5063623;28;20040;-70
2022/11/16 13:40:04;;;;;;;58.08;21.25;;;6.50;99.20;;;;;;5060334;28;20104;-69
2022/11/16 13:42:31;;;;;;;59.03;22.30;;;6.50;99.20;;;;;;5065793;28;20528;-68